Hovedside
METAR-TAF:

METAR-TAF

Lufthavner :

Yap, Mikronesia

breddegrad: 09-29N, lengdegrad: 138-05E, høyde over havet: 28 m

Gjeldene værobservasjon

Denne rapporten ble laget for 23 minutter siden, klokken 20:53 UTC
Vind 2 kt fra skiftende retning
Temperatur 26°C
Luftfuktighet 84%
Trykk 1010 hPa
Sikt: 19.3 km
Få skyer i en høyde av 1600 ft
Spredte skyer i en høyde av 30000 ft

METAR: PTYA 132053Z VRB02KT 12SM FEW016 SCT300 26/23 A2983 RMK SLP101 8/101 T02620228 52008

Tid: 07:16 (21:16 UTC)

Varsel

Denne rapporten ble laget for 3 timer og 46 minutter siden, klokken 17:30 UTC
Varsel gyldig fra 13. klokken 18 UTC til 14. klokken 18 UTC
Vind 5 kt fra skiftende retning
Sikt: 10 km
Få skyer i en høyde av 1800 ft

TAF: PTYA 131730Z 1318/1418 VRB05KT P6SM FEW018

Værobservasjoner og værvarsel for over 4000 flyplasser (METAR- og TAF-rapporter).

Tilgjengelige stasjoner er representert av de røde og gule prikkene på kartet.

Hold musepekeren over prikken for å se navnet på stasjonen.

Klikk så for å se værobservasjoner og -varsler.

For å forandre kartet kan du klikke på den grønne knappen med svart kryss for å zoome inn, på den grønne knappen med strek for å zoome ut, eller på de grønne pilene for å se tilstøtende kart.


METAR-TAF: